Time;durP1;ratioP1;P1;durP2;ratioP2;P2;SDS_P1;SDS_P2;PMS_P1;PMS_P2;Temp;Humidity;BMP_temperature;BMP_pressure;BME280_temperature;BME280_humidity;BME280_pressure;Samples;Min_cycle;Max_cycle;Signal;HPM_P1;HPM_P2
2023/08/15 00:01:40;;;;;;;7.03;6.10;;;22.00;99.90;;;;;;4992136;28;20248;-32
2023/08/15 00:04:06;;;;;;;6.50;5.95;;;21.90;99.90;;;;;;4989031;28;20249;-32
2023/08/15 00:06:31;;;;;;;7.07;6.38;;;21.90;99.90;;;;;;4984606;28;20174;-32
2023/08/15 00:09:00;;;;;;;8.00;7.10;;;21.90;99.90;;;;;;4997291;28;20202;-33
2023/08/15 00:11:26;;;;;;;6.97;6.20;;;21.80;99.90;;;;;;4990977;28;20668;-33
2023/08/15 00:13:55;;;;;;;7.95;7.25;;;21.80;99.90;;;;;;4998157;28;20186;-33
2023/08/15 00:16:21;;;;;;;7.50;6.20;;;21.80;99.90;;;;;;4994202;28;20219;-32
2023/08/15 00:18:47;;;;;;;7.00;6.05;;;21.90;99.90;;;;;;4991454;28;20293;-33
2023/08/15 00:21:13;;;;;;;6.32;5.72;;;21.90;99.90;;;;;;4995702;28;20258;-32
2023/08/15 00:23:38;;;;;;;7.13;6.00;;;21.90;99.90;;;;;;4996758;28;20204;-33
2023/08/15 00:26:04;;;;;;;6.25;5.70;;;21.90;99.90;;;;;;4981031;28;20183;-32
2023/08/15 00:28:30;;;;;;;6.97;6.30;;;21.90;99.90;;;;;;4990648;28;20252;-32
2023/08/15 00:30:57;;;;;;;8.70;6.40;;;21.90;99.90;;;;;;4994804;28;20183;-33
2023/08/15 00:33:23;;;;;;;6.97;6.13;;;21.90;99.90;;;;;;4987196;28;20187;-34
2023/08/15 00:35:49;;;;;;;7.07;6.00;;;21.90;99.90;;;;;;4986239;28;20318;-32
2023/08/15 00:38:14;;;;;;;6.85;6.25;;;21.90;99.90;;;;;;4985286;28;20206;-32
2023/08/15 00:40:41;;;;;;;6.28;5.72;;;21.80;99.90;;;;;;4995876;28;20191;-33
2023/08/15 00:43:08;;;;;;;8.10;6.13;;;21.80;99.90;;;;;;4982993;28;20188;-32
2023/08/15 00:45:39;;;;;;;6.40;5.80;;;21.70;99.90;;;;;;5002610;28;20228;-33
2023/08/15 00:48:06;;;;;;;10.93;6.43;;;21.70;99.90;;;;;;5003368;28;20189;-32
2023/08/15 00:50:33;;;;;;;6.82;6.15;;;21.70;99.90;;;;;;4990712;28;20178;-32
2023/08/15 00:53:01;;;;;;;9.65;6.55;;;21.70;99.90;;;;;;5002567;28;20228;-33
2023/08/15 00:55:27;;;;;;;6.78;6.07;;;21.60;99.90;;;;;;4986021;28;20187;-32
2023/08/15 00:57:54;;;;;;;7.88;6.40;;;21.60;99.90;;;;;;4987197;28;20191;-33
2023/08/15 01:00:20;;;;;;;7.43;6.63;;;21.50;99.90;;;;;;4985985;28;20221;-33
2023/08/15 01:02:46;;;;;;;8.48;6.55;;;21.50;99.90;;;;;;5002489;28;20273;-32
2023/08/15 01:05:17;;;;;;;8.35;6.20;;;21.40;99.90;;;;;;4983033;28;20218;-32
2023/08/15 01:07:43;;;;;;;6.75;6.15;;;21.40;99.90;;;;;;5003782;28;20205;-33
2023/08/15 01:10:09;;;;;;;7.95;6.85;;;21.30;99.90;;;;;;4997041;28;20206;-33
2023/08/15 01:12:55;;;;;;;7.10;6.40;;;21.30;99.90;;;;;;4984651;28;20191;-33
2023/08/15 01:15:28;;;;;;;6.75;6.15;;;21.30;99.90;;;;;;4984781;28;20187;-33
2023/08/15 01:18:02;;;;;;;7.50;6.45;;;21.30;99.90;;;;;;4972075;28;20187;-33
2023/08/15 01:20:32;;;;;;;8.80;7.32;;;21.20;99.90;;;;;;4992980;28;20206;-33
2023/08/15 01:23:00;;;;;;;8.50;6.50;;;21.20;99.90;;;;;;4988350;28;20190;-32
2023/08/15 01:25:27;;;;;;;7.32;6.47;;;21.20;99.90;;;;;;4986178;28;20211;-33
2023/08/15 01:27:53;;;;;;;10.38;7.15;;;21.10;99.90;;;;;;4977813;28;20179;-33
2023/08/15 01:30:22;;;;;;;7.18;6.47;;;21.10;99.90;;;;;;4995935;28;20206;-34
2023/08/15 01:33:06;;;;;;;7.13;6.43;;;21.10;99.90;;;;;;5001072;28;20174;-33
2023/08/15 01:35:46;;;;;;;8.70;6.90;;;21.10;99.90;;;;;;5000500;28;20183;-33
2023/08/15 01:38:27;;;;;;;7.55;6.45;;;21.10;99.90;;;;;;4987341;28;20263;-33
2023/08/15 01:40:55;;;;;;;8.52;6.80;;;21.00;99.90;;;;;;4986012;28;20180;-33
2023/08/15 01:43:22;;;;;;;8.52;7.18;;;21.00;99.90;;;;;;4991614;28;20178;-33
2023/08/15 01:45:49;;;;;;;9.00;8.00;;;21.00;99.90;;;;;;4996531;28;20189;-33
2023/08/15 01:48:15;;;;;;;8.98;7.13;;;21.00;99.90;;;;;;4997559;28;20190;-33
2023/08/15 01:50:41;;;;;;;8.88;7.95;;;20.90;99.90;;;;;;4977620;28;20771;-33
2023/08/15 01:53:07;;;;;;;7.18;6.55;;;21.00;99.90;;;;;;5000893;28;20632;-33
2023/08/15 01:55:33;;;;;;;9.77;7.28;;;21.00;99.90;;;;;;4983277;28;20187;-33
2023/08/15 01:57:59;;;;;;;7.55;6.60;;;21.00;99.90;;;;;;4981668;28;20178;-33
2023/08/15 02:00:25;;;;;;;8.18;7.38;;;21.00;99.90;;;;;;4997424;28;20214;-33
2023/08/15 02:02:50;;;;;;;7.38;6.65;;;21.00;99.90;;;;;;4985667;28;20170;-33
2023/08/15 02:05:16;;;;;;;8.02;6.60;;;20.90;99.90;;;;;;4998292;28;20206;-32
2023/08/15 02:07:44;;;;;;;8.25;7.13;;;20.90;99.90;;;;;;4984907;28;20214;-32
2023/08/15 02:10:10;;;;;;;8.40;7.10;;;20.80;99.90;;;;;;4999388;28;20199;-32
2023/08/15 02:12:36;;;;;;;7.13;6.43;;;20.80;99.90;;;;;;4984396;28;20215;-32
2023/08/15 02:15:04;;;;;;;7.78;6.97;;;20.80;99.90;;;;;;4983971;28;20178;-33
2023/08/15 02:17:30;;;;;;;9.50;6.80;;;20.70;99.90;;;;;;4988327;28;20187;-33
2023/08/15 02:19:56;;;;;;;8.50;6.57;;;20.70;99.90;;;;;;4990731;28;20289;-33
2023/08/15 02:22:22;;;;;;;8.48;7.28;;;20.60;99.90;;;;;;4982900;28;20271;-33
2023/08/15 02:24:48;;;;;;;7.88;7.15;;;20.50;99.90;;;;;;4982702;28;20218;-33
2023/08/15 02:27:14;;;;;;;8.95;6.50;;;20.60;99.90;;;;;;4978356;28;20179;-33
2023/08/15 02:29:41;;;;;;;7.25;6.55;;;20.60;99.90;;;;;;4992918;28;20194;-32
2023/08/15 02:32:06;;;;;;;7.85;7.05;;;20.50;99.90;;;;;;5001477;28;20185;-33
2023/08/15 02:34:32;;;;;;;8.57;7.05;;;20.60;99.90;;;;;;4997750;28;20187;-33
2023/08/15 02:36:58;;;;;;;8.43;7.05;;;20.60;99.90;;;;;;4981802;28;20225;-33
2023/08/15 02:39:24;;;;;;;7.68;6.88;;;20.60;99.90;;;;;;5000161;28;20293;-33
2023/08/15 02:41:51;;;;;;;6.72;6.13;;;20.60;99.90;;;;;;4991909;28;20214;-33
2023/08/15 02:44:19;;;;;;;7.53;6.78;;;20.60;99.90;;;;;;4982907;28;20207;-33
2023/08/15 02:46:45;;;;;;;7.88;7.05;;;20.60;99.90;;;;;;4983424;28;20260;-33
2023/08/15 02:49:11;;;;;;;8.55;7.72;;;20.50;99.90;;;;;;4984446;28;20195;-33
2023/08/15 02:51:38;;;;;;;7.65;7.05;;;20.50;99.90;;;;;;4976735;28;20330;-34
2023/08/15 02:54:04;;;;;;;7.45;6.85;;;20.50;99.90;;;;;;4978523;28;20262;-33
2023/08/15 02:56:30;;;;;;;7.18;6.47;;;20.60;99.90;;;;;;4981379;28;20275;-34
2023/08/15 03:01:32;;;;;;;6.38;5.85;;;20.50;99.90;;;;;;4965942;28;20274;-29
2023/08/15 03:03:58;;;;;;;7.13;6.53;;;20.40;99.90;;;;;;4959816;28;20213;-29
2023/08/15 03:06:24;;;;;;;7.78;6.70;;;20.40;99.90;;;;;;4957029;28;20188;-29
2023/08/15 03:08:50;;;;;;;7.82;7.13;;;20.40;99.90;;;;;;4965678;28;20200;-29
2023/08/15 03:11:15;;;;;;;8.05;7.00;;;20.30;99.90;;;;;;4960829;28;20227;-29
2023/08/15 03:13:41;;;;;;;7.30;6.70;;;20.30;99.90;;;;;;4992943;28;20176;-29
2023/08/15 03:16:07;;;;;;;7.38;6.78;;;20.30;99.90;;;;;;4968719;28;20302;-30
2023/08/15 03:18:33;;;;;;;8.10;7.47;;;20.40;99.90;;;;;;4966300;28;20176;-29
2023/08/15 03:21:02;;;;;;;7.57;6.78;;;20.30;99.90;;;;;;4984983;28;20950;-29
2023/08/15 03:23:29;;;;;;;7.68;6.97;;;20.30;99.90;;;;;;4979698;28;20179;-30
2023/08/15 03:25:59;;;;;;;8.43;7.07;;;20.40;99.90;;;;;;4979391;28;20184;-30
2023/08/15 03:28:29;;;;;;;8.52;7.72;;;20.40;99.90;;;;;;4977858;28;20183;-29
2023/08/15 03:30:55;;;;;;;10.68;8.43;;;20.30;99.90;;;;;;4958838;28;20188;-29
2023/08/15 03:33:23;;;;;;;7.50;6.78;;;20.30;99.90;;;;;;4977160;28;20191;-30
2023/08/15 03:35:51;;;;;;;8.15;6.50;;;20.30;99.90;;;;;;4958155;28;20730;-29
2023/08/15 03:38:21;;;;;;;7.45;6.70;;;20.30;99.90;;;;;;4977514;28;20176;-30
2023/08/15 03:40:52;;;;;;;6.95;6.35;;;20.30;99.90;;;;;;4959396;28;20180;-30
2023/08/15 03:43:18;;;;;;;7.80;7.00;;;20.20;99.90;;;;;;4962282;28;20184;-29
2023/08/15 03:45:44;;;;;;;8.18;6.32;;;20.20;99.90;;;;;;4963295;28;20183;-29
2023/08/15 03:48:09;;;;;;;8.88;6.53;;;20.20;99.90;;;;;;4959353;28;20204;-31
2023/08/15 03:50:37;;;;;;;7.45;6.85;;;20.20;99.90;;;;;;4978735;28;20211;-29
2023/08/15 03:53:03;;;;;;;8.00;7.30;;;20.20;99.90;;;;;;4974691;28;20238;-29
2023/08/15 03:55:30;;;;;;;7.30;6.43;;;20.20;99.90;;;;;;4969435;28;20188;-29
2023/08/15 03:57:56;;;;;;;6.88;6.30;;;20.20;99.90;;;;;;4978987;28;20252;-29
2023/08/15 04:00:22;;;;;;;10.40;6.45;;;20.30;99.90;;;;;;4960316;28;20208;-30
2023/08/15 04:02:48;;;;;;;7.65;6.90;;;20.20;99.90;;;;;;4958111;28;20242;-29
2023/08/15 04:05:14;;;;;;;7.05;6.38;;;20.20;99.90;;;;;;4973538;28;20201;-29
2023/08/15 04:07:40;;;;;;;6.18;5.68;;;20.20;99.90;;;;;;4964115;28;20237;-30
2023/08/15 04:10:07;;;;;;;12.55;6.72;;;20.10;99.90;;;;;;4977338;28;20291;-30
2023/08/15 04:12:34;;;;;;;8.73;7.05;;;20.10;99.90;;;;;;4992342;28;20761;-30
2023/08/15 04:15:00;;;;;;;7.13;6.40;;;20.00;99.90;;;;;;4977610;28;20202;-29
2023/08/15 04:17:27;;;;;;;7.03;6.07;;;20.00;99.90;;;;;;4975677;28;20184;-30
2023/08/15 04:19:52;;;;;;;6.57;5.97;;;20.00;99.90;;;;;;4977171;28;20215;-29
2023/08/15 04:22:18;;;;;;;6.18;5.70;;;20.00;99.90;;;;;;4976278;28;20183;-29
2023/08/15 04:24:45;;;;;;;7.45;6.18;;;20.00;99.90;;;;;;4994484;28;20212;-30
2023/08/15 04:27:11;;;;;;;6.38;5.78;;;20.00;99.90;;;;;;4976128;28;20183;-29
2023/08/15 04:29:37;;;;;;;7.07;6.45;;;20.00;99.90;;;;;;4978381;28;20223;-29
2023/08/15 04:32:03;;;;;;;7.05;6.35;;;20.10;99.90;;;;;;4977059;28;20216;-29
2023/08/15 04:34:29;;;;;;;6.53;5.93;;;20.10;99.90;;;;;;4976118;28;20184;-29
2023/08/15 04:36:58;;;;;;;7.05;6.47;;;20.20;99.90;;;;;;4960917;28;20187;-29
2023/08/15 04:39:27;;;;;;;6.93;6.32;;;20.30;99.90;;;;;;4993632;28;20250;-30
2023/08/15 04:42:04;;;;;;;6.93;6.22;;;20.30;99.90;;;;;;4992916;28;20192;-30
2023/08/15 04:44:44;;;;;;;7.82;6.25;;;20.30;99.90;;;;;;4991970;28;20223;-29
2023/08/15 04:47:13;;;;;;;6.68;6.07;;;20.30;99.90;;;;;;4959585;28;20271;-29
2023/08/15 04:49:40;;;;;;;6.88;6.18;;;20.30;99.90;;;;;;4975547;28;20195;-29
2023/08/15 04:52:09;;;;;;;6.43;5.82;;;20.30;99.90;;;;;;4975997;28;20253;-29
2023/08/15 04:54:35;;;;;;;6.72;6.13;;;20.30;99.90;;;;;;4983105;28;20358;-30
2023/08/15 04:57:02;;;;;;;6.53;6.00;;;20.30;99.90;;;;;;4965582;28;20265;-30
2023/08/15 04:59:28;;;;;;;6.90;6.30;;;20.30;99.90;;;;;;4967607;28;20239;-29
2023/08/15 05:01:56;;;;;;;7.22;6.45;;;20.30;99.90;;;;;;4951915;28;20195;-29
2023/08/15 05:04:27;;;;;;;6.88;6.18;;;20.30;99.90;;;;;;4957398;28;20216;-30
2023/08/15 05:06:53;;;;;;;7.32;6.63;;;20.30;99.90;;;;;;4960209;28;20187;-29
2023/08/15 05:09:19;;;;;;;7.43;6.82;;;20.30;99.90;;;;;;4960877;28;20196;-29
2023/08/15 05:11:46;;;;;;;7.72;6.32;;;20.30;99.90;;;;;;4963703;28;20177;-29
2023/08/15 05:14:13;;;;;;;7.32;6.47;;;20.30;99.90;;;;;;4946593;28;20185;-29
2023/08/15 05:16:39;;;;;;;7.22;6.47;;;20.40;99.90;;;;;;4962057;28;20185;-29
2023/08/15 05:19:05;;;;;;;9.32;6.43;;;20.40;99.90;;;;;;4961174;28;20207;-29
2023/08/15 05:21:30;;;;;;;7.00;6.25;;;20.40;99.90;;;;;;4962085;28;20232;-30
2023/08/15 05:23:56;;;;;;;8.32;6.38;;;20.40;99.90;;;;;;4956202;28;20201;-30
2023/08/15 05:26:22;;;;;;;7.38;6.70;;;20.40;99.90;;;;;;4960126;28;20279;-29
2023/08/15 05:28:49;;;;;;;8.68;7.22;;;20.40;99.90;;;;;;4950427;28;20315;-30
2023/08/15 05:31:15;;;;;;;7.80;7.00;;;20.50;99.90;;;;;;4945573;28;20263;-30
2023/08/15 05:33:41;;;;;;;9.73;7.45;;;20.50;99.90;;;;;;4960312;28;20192;-30
2023/08/15 05:36:06;;;;;;;7.18;6.57;;;20.50;99.90;;;;;;4959361;28;20191;-30
2023/08/15 05:38:32;;;;;;;7.80;7.10;;;20.50;99.90;;;;;;4958571;28;20192;-29
2023/08/15 05:40:58;;;;;;;7.38;6.78;;;20.60;99.90;;;;;;4964161;28;20200;-29
2023/08/15 05:43:24;;;;;;;7.90;7.18;;;20.70;99.90;;;;;;4963587;28;20208;-30
2023/08/15 05:45:51;;;;;;;6.22;5.72;;;20.70;99.90;;;;;;4946643;28;20184;-29
2023/08/15 05:48:18;;;;;;;7.43;6.82;;;20.80;99.90;;;;;;4986308;28;20180;-32
2023/08/15 05:50:44;;;;;;;7.10;6.40;;;20.90;99.90;;;;;;4946295;28;20207;-29
2023/08/15 05:53:09;;;;;;;7.32;6.63;;;21.00;99.90;;;;;;4942103;28;20221;-29
2023/08/15 05:55:35;;;;;;;7.03;6.28;;;21.10;99.90;;;;;;4960603;28;20199;-31
2023/08/15 05:58:01;;;;;;;8.13;6.60;;;21.20;99.90;;;;;;4953817;28;20661;-30
2023/08/15 06:00:27;;;;;;;7.35;6.75;;;21.30;99.90;;;;;;4996659;28;20222;-29
2023/08/15 06:02:53;;;;;;;9.50;7.28;;;21.40;99.90;;;;;;4976699;28;20179;-29
2023/08/15 06:05:18;;;;;;;7.35;6.75;;;21.50;99.90;;;;;;4975704;28;20362;-30
2023/08/15 06:07:45;;;;;;;7.22;6.53;;;21.60;99.90;;;;;;4975677;28;20187;-30
2023/08/15 06:10:13;;;;;;;7.88;6.90;;;21.70;99.90;;;;;;4976923;28;20201;-29
2023/08/15 06:12:39;;;;;;;7.72;7.03;;;21.80;99.90;;;;;;4967541;28;20184;-30
2023/08/15 06:15:05;;;;;;;11.20;7.15;;;21.90;99.90;;;;;;4966443;28;20187;-30
2023/08/15 06:17:32;;;;;;;8.23;7.40;;;21.90;99.90;;;;;;4976984;28;20178;-30
2023/08/15 06:19:57;;;;;;;8.50;6.97;;;22.00;99.90;;;;;;4974359;28;20204;-30
2023/08/15 06:22:23;;;;;;;7.75;7.00;;;22.10;99.90;;;;;;4960609;28;20192;-29
2023/08/15 06:24:49;;;;;;;7.63;7.03;;;22.10;99.90;;;;;;4962854;28;20221;-29
2023/08/15 06:27:15;;;;;;;7.65;6.97;;;22.10;99.90;;;;;;4973176;28;20180;-30
2023/08/15 06:29:42;;;;;;;7.35;6.50;;;22.20;99.90;;;;;;4974796;28;20211;-30
2023/08/15 06:32:28;;;;;;;7.22;6.43;;;22.20;99.90;;;;;;4963332;28;20183;-30
2023/08/15 06:34:54;;;;;;;9.93;7.15;;;22.20;99.90;;;;;;4974961;28;20191;-30
2023/08/15 06:37:20;;;;;;;7.97;7.18;;;22.20;99.90;;;;;;4970386;28;20188;-29
2023/08/15 06:39:46;;;;;;;7.57;6.80;;;22.20;99.90;;;;;;4962158;28;20215;-30
2023/08/15 06:42:12;;;;;;;7.68;6.97;;;22.20;99.90;;;;;;4957749;28;20191;-30
2023/08/15 06:44:38;;;;;;;8.68;7.15;;;22.20;99.90;;;;;;4966137;28;20242;-29
2023/08/15 06:47:04;;;;;;;10.13;7.22;;;22.30;99.90;;;;;;4966797;28;20207;-29
2023/08/15 06:49:30;;;;;;;8.20;7.47;;;22.30;99.90;;;;;;4975479;28;20211;-29
2023/08/15 06:51:56;;;;;;;7.43;6.72;;;22.40;99.90;;;;;;4970810;28;20271;-29
2023/08/15 06:54:22;;;;;;;7.28;6.70;;;22.40;99.90;;;;;;4983051;28;20266;-30
2023/08/15 06:56:48;;;;;;;7.40;6.72;;;22.50;99.90;;;;;;4998025;28;20191;-29
2023/08/15 06:59:14;;;;;;;8.80;7.93;;;22.50;99.90;;;;;;4981421;28;20203;-29
2023/08/15 07:01:40;;;;;;;8.15;7.38;;;22.60;99.90;;;;;;4973693;28;20187;-29
2023/08/15 07:04:06;;;;;;;7.45;6.80;;;22.60;99.90;;;;;;4981429;28;20214;-31
2023/08/15 07:06:32;;;;;;;8.35;7.13;;;22.60;99.90;;;;;;4978159;28;20227;-29
2023/08/15 07:08:59;;;;;;;8.30;7.50;;;22.70;99.90;;;;;;4970956;28;20206;-30
2023/08/15 07:11:25;;;;;;;8.07;7.10;;;22.70;99.90;;;;;;4965836;28;20180;-30
2023/08/15 07:13:50;;;;;;;7.57;6.95;;;22.70;99.90;;;;;;4963457;28;20183;-29
2023/08/15 07:16:17;;;;;;;7.80;7.10;;;22.70;99.90;;;;;;4961665;28;20180;-30
2023/08/15 07:18:43;;;;;;;7.80;7.00;;;22.70;99.90;;;;;;4953519;28;20200;-30
2023/08/15 07:21:10;;;;;;;7.90;7.20;;;22.80;99.90;;;;;;4960023;28;20195;-29
2023/08/15 07:23:36;;;;;;;9.95;7.05;;;22.90;99.90;;;;;;4978093;28;20188;-30
2023/08/15 07:26:08;;;;;;;8.15;7.35;;;22.90;99.90;;;;;;4962534;28;20175;-29
2023/08/15 07:28:37;;;;;;;7.32;6.57;;;23.00;99.90;;;;;;4972550;28;20189;-30
2023/08/15 07:31:04;;;;;;;9.80;7.57;;;23.00;99.90;;;;;;4975774;28;20184;-30
2023/08/15 07:33:33;;;;;;;8.35;7.10;;;23.10;99.90;;;;;;4968334;28;20188;-30
2023/08/15 07:36:02;;;;;;;7.90;7.20;;;23.20;99.90;;;;;;4986814;28;20188;-29
2023/08/15 07:38:29;;;;;;;7.15;6.45;;;23.30;99.90;;;;;;4988279;28;20186;-29
2023/08/15 07:41:01;;;;;;;8.43;7.63;;;23.40;99.90;;;;;;4973703;28;20228;-31
2023/08/15 07:43:28;;;;;;;7.85;7.05;;;23.50;99.90;;;;;;4976195;28;20239;-30
2023/08/15 07:46:03;;;;;;;7.18;6.47;;;23.70;99.90;;;;;;4970423;28;20180;-30
2023/08/15 07:48:29;;;;;;;8.18;6.93;;;23.90;99.90;;;;;;4964207;28;20203;-30
2023/08/15 07:50:56;;;;;;;7.57;6.80;;;23.90;99.90;;;;;;4977124;28;20187;-31
2023/08/15 07:53:24;;;;;;;8.00;6.97;;;23.90;99.90;;;;;;4980871;28;20183;-29
2023/08/15 07:56:04;;;;;;;9.13;6.95;;;23.80;99.90;;;;;;4979403;28;20175;-30
2023/08/15 07:58:37;;;;;;;9.38;7.07;;;23.70;99.90;;;;;;4971752;28;20275;-30
2023/08/15 08:01:08;;;;;;;8.18;6.95;;;23.70;99.90;;;;;;4973782;28;20198;-29
2023/08/15 08:03:42;;;;;;;6.70;6.10;;;23.70;99.90;;;;;;4971187;28;20183;-30
2023/08/15 08:06:09;;;;;;;9.98;7.00;;;23.70;99.90;;;;;;4978871;28;20646;-30
2023/08/15 08:08:35;;;;;;;7.70;7.03;;;23.80;99.90;;;;;;4978377;28;20187;-30
2023/08/15 08:11:04;;;;;;;7.45;6.85;;;23.80;99.90;;;;;;4979889;28;20211;-29
2023/08/15 08:13:30;;;;;;;7.80;6.82;;;23.90;99.90;;;;;;4974354;28;20249;-30
2023/08/15 08:15:56;;;;;;;7.50;6.80;;;23.90;99.90;;;;;;4965388;28;20191;-30
2023/08/15 08:18:21;;;;;;;9.48;6.50;;;23.90;99.90;;;;;;4976934;28;20176;-30
2023/08/15 08:20:48;;;;;;;10.02;6.70;;;23.90;99.90;;;;;;4964994;28;20216;-30
2023/08/15 08:23:13;;;;;;;7.20;6.40;;;23.90;99.90;;;;;;4964107;28;20191;-29
2023/08/15 08:25:39;;;;;;;7.32;6.72;;;23.90;99.90;;;;;;4961111;28;20208;-30
2023/08/15 08:28:05;;;;;;;7.32;6.63;;;23.90;99.90;;;;;;4981263;28;20211;-30
2023/08/15 08:30:33;;;;;;;8.68;6.47;;;23.90;99.90;;;;;;4977661;28;20208;-30
2023/08/15 08:32:59;;;;;;;6.65;6.05;;;24.10;99.90;;;;;;4963955;28;20670;-30
2023/08/15 08:35:24;;;;;;;9.07;7.30;;;24.10;99.90;;;;;;4957778;28;20232;-30
2023/08/15 08:37:51;;;;;;;7.20;6.40;;;24.20;99.90;;;;;;4976720;28;20208;-30
2023/08/15 08:40:18;;;;;;;7.30;6.63;;;24.30;99.90;;;;;;4967414;28;20207;-30
2023/08/15 08:42:46;;;;;;;7.07;6.30;;;24.30;99.90;;;;;;4964625;28;20188;-30
2023/08/15 08:45:13;;;;;;;6.45;5.82;;;24.60;99.90;;;;;;4960450;28;20220;-29
2023/08/15 08:47:41;;;;;;;8.45;6.28;;;24.90;99.90;;;;;;4961257;28;20663;-29
2023/08/15 08:50:11;;;;;;;6.00;5.30;;;25.10;99.90;;;;;;4963950;28;20246;-30
2023/08/15 08:52:41;;;;;;;6.00;5.43;;;25.30;99.90;;;;;;4961137;28;20270;-29
2023/08/15 08:55:09;;;;;;;6.28;5.50;;;25.40;99.90;;;;;;4963263;28;20187;-29
2023/08/15 08:57:55;;;;;;;10.27;6.03;;;25.50;99.90;;;;;;4978691;28;20246;-29
2023/08/15 09:00:29;;;;;;;7.75;5.90;;;25.70;99.90;;;;;;4961000;28;20220;-30
2023/08/15 09:02:56;;;;;;;6.32;5.25;;;25.80;99.90;;;;;;4954768;28;20180;-29
2023/08/15 09:05:23;;;;;;;6.65;5.63;;;26.00;99.90;;;;;;4980365;28;20217;-30
2023/08/15 09:07:51;;;;;;;8.18;5.95;;;26.40;99.90;;;;;;4976053;28;20215;-29
2023/08/15 09:10:17;;;;;;;6.00;4.97;;;26.60;99.90;;;;;;4965538;28;20208;-30
2023/08/15 09:12:45;;;;;;;6.93;5.32;;;26.70;99.90;;;;;;4992141;28;20234;-30
2023/08/15 09:15:18;;;;;;;8.35;5.15;;;26.70;99.90;;;;;;4985386;28;20299;-29
2023/08/15 09:17:59;;;;;;;8.27;5.15;;;26.70;99.90;;;;;;4971862;28;21052;-29
2023/08/15 09:20:26;;;;;;;5.75;4.75;;;26.60;99.90;;;;;;4957724;28;20236;-30
2023/08/15 09:22:59;;;;;;;7.65;4.90;;;26.50;99.90;;;;;;4964331;28;20179;-30
2023/08/15 09:25:27;;;;;;;7.38;5.00;;;26.40;99.90;;;;;;4956357;28;20254;-30
2023/08/15 09:27:56;;;;;;;6.75;4.63;;;26.50;99.90;;;;;;4988908;28;20191;-30
2023/08/15 09:30:22;;;;;;;5.32;4.28;;;26.70;99.90;;;;;;4976120;28;20200;-30
2023/08/15 09:32:50;;;;;;;4.63;4.00;;;26.90;99.90;;;;;;4967821;28;20183;-29
2023/08/15 09:35:17;;;;;;;7.88;5.07;;;27.00;99.90;;;;;;4961622;28;20218;-30
2023/08/15 09:37:45;;;;;;;5.28;4.22;;;27.10;99.90;;;;;;4978859;28;20188;-31
2023/08/15 09:40:24;;;;;;;8.25;4.10;;;27.10;99.90;;;;;;4973901;28;20204;-30
2023/08/15 09:42:51;;;;;;;4.63;3.60;;;27.10;99.90;;;;;;4996088;28;20189;-30
2023/08/15 09:45:18;;;;;;;4.18;3.70;;;27.10;99.90;;;;;;4965616;28;20227;-30
2023/08/15 09:47:45;;;;;;;4.53;3.45;;;27.10;99.90;;;;;;4974603;28;20176;-30
2023/08/15 09:50:14;;;;;;;5.40;3.42;;;27.10;99.90;;;;;;4969269;28;20204;-31
2023/08/15 09:52:44;;;;;;;6.13;3.45;;;27.10;99.90;;;;;;4978126;28;20180;-30
2023/08/15 09:55:14;;;;;;;5.47;3.92;;;27.10;99.90;;;;;;4965301;28;20749;-30
2023/08/15 09:57:42;;;;;;;6.15;3.30;;;27.20;99.90;;;;;;4977441;28;20184;-31
2023/08/15 10:00:11;;;;;;;3.90;2.97;;;27.30;99.90;;;;;;4986537;28;20256;-31
2023/08/15 10:02:44;;;;;;;5.22;3.30;;;27.40;99.90;;;;;;4990091;28;20184;-30
2023/08/15 10:05:11;;;;;;;6.35;3.38;;;27.60;99.90;;;;;;4971163;28;20222;-31
2023/08/15 10:07:38;;;;;;;3.45;3.00;;;27.70;99.90;;;;;;4974449;28;20267;-30
2023/08/15 10:10:05;;;;;;;7.82;3.22;;;27.90;99.90;;;;;;4953576;28;20200;-31
2023/08/15 10:12:34;;;;;;;4.43;3.00;;;28.00;99.90;;;;;;4958570;28;20183;-31
2023/08/15 10:15:00;;;;;;;3.53;3.03;;;28.00;99.90;;;;;;4974166;28;20279;-31
2023/08/15 10:17:29;;;;;;;6.07;3.20;;;27.90;99.90;;;;;;4974165;28;20192;-31
2023/08/15 10:20:01;;;;;;;4.13;3.38;;;28.00;99.90;;;;;;4970596;28;20254;-30
2023/08/15 10:22:28;;;;;;;4.05;2.80;;;28.10;99.90;;;;;;4971491;28;20678;-31
2023/08/15 10:24:59;;;;;;;3.90;3.00;;;28.20;99.90;;;;;;4974000;28;20213;-30
2023/08/15 10:27:25;;;;;;;4.55;2.60;;;28.30;99.90;;;;;;4968680;28;20183;-31
2023/08/15 10:29:56;;;;;;;3.58;2.40;;;28.20;99.90;;;;;;4973419;28;20231;-30
2023/08/15 10:32:27;;;;;;;2.28;1.92;;;28.10;99.90;;;;;;4973686;28;20176;-30
2023/08/15 10:34:58;;;;;;;5.55;2.10;;;27.90;99.90;;;;;;4973836;28;20227;-30
2023/08/15 10:37:50;;;;;;;2.67;2.08;;;27.80;99.90;;;;;;4973499;28;20183;-30
2023/08/15 10:40:17;;;;;;;5.15;2.38;;;27.70;99.90;;;;;;4988228;28;20219;-30
2023/08/15 10:43:01;;;;;;;5.57;2.40;;;27.60;99.90;;;;;;4970160;28;20651;-31
2023/08/15 10:45:31;;;;;;;4.05;2.10;;;27.60;99.90;;;;;;4973525;28;20279;-30
2023/08/15 10:47:57;;;;;;;5.00;2.28;;;27.50;99.90;;;;;;4986941;28;20280;-30
2023/08/15 10:50:23;;;;;;;2.58;2.20;;;27.50;99.90;;;;;;4971598;28;20204;-30
2023/08/15 10:53:01;;;;;;;3.05;1.95;;;27.50;99.90;;;;;;4974016;28;20203;-30
2023/08/15 10:55:29;;;;;;;2.28;2.00;;;27.60;99.90;;;;;;4971278;28;20183;-30
2023/08/15 10:57:56;;;;;;;3.65;2.20;;;27.60;99.90;;;;;;4957864;28;20195;-31
2023/08/15 11:00:22;;;;;;;4.40;2.13;;;27.70;99.90;;;;;;4960602;28;20275;-30
2023/08/15 11:02:52;;;;;;;3.30;1.92;;;28.00;99.90;;;;;;4939355;28;20196;-30
2023/08/15 11:05:19;;;;;;;3.88;2.13;;;28.20;99.90;;;;;;4952144;28;20223;-31
2023/08/15 11:07:45;;;;;;;3.30;2.20;;;28.50;99.90;;;;;;4962430;28;20180;-31
2023/08/15 11:10:14;;;;;;;6.38;2.30;;;28.70;99.90;;;;;;4938820;28;20192;-31
2023/08/15 11:12:50;;;;;;;2.80;2.35;;;28.90;99.90;;;;;;4959139;28;20173;-30
2023/08/15 11:15:16;;;;;;;4.35;2.03;;;29.20;99.90;;;;;;4960133;28;20184;-31
2023/08/15 11:17:46;;;;;;;6.57;2.17;;;29.40;99.90;;;;;;4967984;28;20176;-31
2023/08/15 11:20:13;;;;;;;3.65;2.22;;;29.60;99.90;;;;;;4956665;28;20200;-31
2023/08/15 11:22:39;;;;;;;4.07;2.50;;;29.80;99.90;;;;;;4961637;28;20181;-31
2023/08/15 11:25:08;;;;;;;3.28;2.55;;;29.90;99.90;;;;;;4953208;28;20611;-31
2023/08/15 11:27:45;;;;;;;5.25;2.10;;;30.00;99.90;;;;;;4953946;28;20188;-31
2023/08/15 11:30:13;;;;;;;2.88;2.30;;;30.20;99.90;;;;;;4946754;28;20211;-31
2023/08/15 11:32:42;;;;;;;3.28;2.25;;;30.30;99.90;;;;;;4951418;28;20224;-31
2023/08/15 11:35:10;;;;;;;2.97;2.20;;;30.40;99.90;;;;;;4938512;28;20192;-31
2023/08/15 11:37:37;;;;;;;3.47;2.28;;;30.60;99.90;;;;;;4946217;28;20181;-31
2023/08/15 11:40:04;;;;;;;3.70;2.20;;;30.80;99.90;;;;;;4959486;28;20204;-31
2023/08/15 11:42:32;;;;;;;2.63;2.17;;;30.90;99.90;;;;;;4960399;28;20183;-31
2023/08/15 11:45:25;;;;;;;2.03;1.92;;;31.00;99.90;;;;;;4960802;28;20207;-31
2023/08/15 11:48:07;;;;;;;4.53;2.17;;;31.20;99.90;;;;;;4950646;28;20219;-31
2023/08/15 11:50:39;;;;;;;3.42;2.10;;;31.20;99.90;;;;;;4958865;28;20227;-31
2023/08/15 11:53:14;;;;;;;3.88;2.20;;;31.20;99.90;;;;;;4976806;28;20186;-31
2023/08/15 11:55:43;;;;;;;4.50;2.42;;;31.20;99.90;;;;;;4975158;28;20287;-31
2023/08/15 11:58:21;;;;;;;3.25;2.13;;;30.80;99.90;;;;;;4955267;28;20216;-31
2023/08/15 12:00:46;;;;;;;2.70;2.00;;;30.70;99.90;;;;;;4965822;28;20211;-31
2023/08/15 12:03:12;;;;;;;2.38;2.17;;;30.70;99.90;;;;;;4990537;28;20193;-31
2023/08/15 12:05:43;;;;;;;2.67;2.17;;;30.70;99.90;;;;;;4968807;28;20212;-31
2023/08/15 12:08:15;;;;;;;4.68;2.28;;;30.70;99.90;;;;;;4968618;28;20185;-31
2023/08/15 12:10:44;;;;;;;4.82;2.38;;;30.60;99.90;;;;;;4967342;28;20267;-31
2023/08/15 12:13:10;;;;;;;3.13;2.30;;;30.50;99.90;;;;;;4954631;28;20193;-31
2023/08/15 12:15:36;;;;;;;4.13;2.20;;;30.60;99.90;;;;;;4967805;28;20177;-31
2023/08/15 12:18:03;;;;;;;3.83;2.03;;;30.70;99.90;;;;;;4966882;28;20199;-30
2023/08/15 12:20:31;;;;;;;3.42;2.17;;;30.90;99.90;;;;;;4967690;28;20216;-31
2023/08/15 12:22:56;;;;;;;2.83;1.92;;;31.00;99.90;;;;;;4953225;28;20207;-31
2023/08/15 12:25:22;;;;;;;4.47;2.53;;;31.20;99.90;;;;;;4968333;28;20246;-31
2023/08/15 12:27:48;;;;;;;4.00;2.35;;;31.20;99.90;;;;;;4960644;28;20192;-31
2023/08/15 12:30:14;;;;;;;4.15;2.13;;;31.30;99.90;;;;;;4969927;28;20192;-32
2023/08/15 12:32:40;;;;;;;3.03;2.40;;;31.50;99.90;;;;;;4950893;28;20267;-31
2023/08/15 12:35:06;;;;;;;5.32;2.10;;;31.70;99.90;;;;;;4956262;28;20185;-32
2023/08/15 12:37:32;;;;;;;2.30;2.10;;;31.90;99.90;;;;;;4973711;28;20189;-30
2023/08/15 12:39:57;;;;;;;3.88;2.50;;;31.90;99.90;;;;;;4973578;28;20320;-31
2023/08/15 12:42:23;;;;;;;4.68;2.40;;;31.90;99.90;;;;;;4957191;28;20267;-31
2023/08/15 12:44:49;;;;;;;4.65;2.33;;;31.90;99.90;;;;;;4972896;28;20219;-31
2023/08/15 12:47:15;;;;;;;2.55;2.35;;;32.00;99.90;;;;;;4972201;28;20191;-31
2023/08/15 12:49:41;;;;;;;4.18;2.28;;;32.20;99.90;;;;;;4972213;28;20207;-31
2023/08/15 12:52:06;;;;;;;4.50;2.45;;;32.20;99.90;;;;;;4956949;28;20227;-31